createdAt,value
2023-01-21T00:00:59.372Z,21.77
2023-01-21T00:03:27.624Z,21.76
2023-01-21T00:05:58.228Z,21.75
2023-01-21T00:08:26.469Z,21.75
2023-01-21T00:10:54.598Z,21.74
2023-01-21T00:13:22.787Z,21.73
2023-01-21T00:15:50.967Z,21.74
2023-01-21T00:18:20.728Z,21.73
2023-01-21T00:20:48.920Z,21.73
2023-01-21T00:23:17.152Z,21.73
2023-01-21T00:25:45.581Z,21.73
2023-01-21T00:28:14.093Z,21.70
2023-01-21T00:30:42.736Z,21.70
2023-01-21T00:33:11.641Z,21.68
2023-01-21T00:35:42.254Z,21.68
2023-01-21T00:38:10.433Z,21.67
2023-01-21T00:40:38.651Z,21.67
2023-01-21T00:43:06.828Z,21.67
2023-01-21T00:45:35.040Z,21.67
2023-01-21T00:48:03.159Z,21.66
2023-01-21T00:50:31.313Z,21.66
2023-01-21T00:53:00.785Z,21.65
2023-01-21T00:55:29.015Z,21.66
2023-01-21T00:57:57.224Z,21.65
2023-01-21T01:00:25.748Z,21.65
2023-01-21T01:02:53.934Z,21.64
2023-01-21T01:05:22.443Z,21.63
2023-01-21T01:07:51.296Z,21.62
2023-01-21T01:10:20.890Z,21.63
2023-01-21T01:12:49.076Z,21.63
2023-01-21T01:15:17.277Z,21.63
2023-01-21T01:17:45.436Z,21.62
2023-01-21T01:20:13.756Z,21.60
2023-01-21T01:22:42.031Z,21.61
2023-01-21T01:25:10.734Z,21.60
2023-01-21T01:27:40.363Z,21.61
2023-01-21T01:30:10.885Z,21.59
2023-01-21T01:32:39.066Z,21.59
2023-01-21T01:35:07.588Z,21.58
2023-01-21T01:37:35.789Z,21.57
2023-01-21T01:40:03.959Z,21.57
2023-01-21T01:42:32.242Z,21.57
2023-01-21T01:45:02.756Z,21.56
2023-01-21T01:47:33.780Z,21.56
2023-01-21T01:50:02.204Z,21.56
2023-01-21T01:52:30.578Z,21.56
2023-01-21T01:54:59.059Z,21.55
2023-01-21T01:57:29.632Z,21.54
2023-01-21T01:59:57.825Z,21.55
2023-01-21T02:02:27.303Z,21.54
2023-01-21T02:04:56.488Z,21.54
2023-01-21T02:07:25.299Z,21.54
2023-01-21T02:09:53.995Z,21.54
2023-01-21T02:12:22.395Z,21.53
2023-01-21T02:14:50.566Z,21.53
2023-01-21T02:17:28.330Z,21.51
2023-01-21T02:20:24.119Z,21.49
2023-01-21T02:22:55.287Z,21.50
2023-01-21T02:25:41.185Z,21.47
2023-01-21T02:28:28.326Z,21.47
2023-01-21T02:31:25.753Z,21.47
2023-01-21T02:34:02.254Z,21.49
2023-01-21T02:36:50.761Z,21.50
2023-01-21T02:39:23.083Z,21.49
2023-01-21T02:42:01.469Z,21.49
2023-01-21T02:44:33.942Z,21.49
2023-01-21T02:47:04.402Z,21.48
2023-01-21T02:49:36.017Z,21.47
2023-01-21T02:52:04.337Z,21.47
2023-01-21T02:55:02.548Z,21.46
2023-01-21T02:57:48.609Z,21.46
2023-01-21T03:00:19.341Z,21.46
2023-01-21T03:03:06.460Z,21.45
2023-01-21T03:05:42.980Z,21.45
2023-01-21T03:08:13.944Z,21.45
2023-01-21T03:10:43.333Z,21.45
2023-01-21T03:13:14.334Z,21.45
2023-01-21T03:16:02.485Z,21.44
2023-01-21T03:18:32.108Z,21.44
2023-01-21T03:21:03.178Z,21.44
2023-01-21T03:23:33.968Z,21.44
2023-01-21T03:26:02.110Z,21.42
2023-01-21T03:28:32.103Z,21.42
2023-01-21T03:31:03.575Z,21.40
2023-01-21T03:33:31.751Z,21.40
2023-01-21T03:36:01.224Z,21.41
2023-01-21T03:38:31.542Z,21.40
2023-01-21T03:41:01.276Z,21.38
2023-01-21T03:43:29.378Z,21.38
2023-01-21T03:46:01.551Z,21.37
2023-01-21T03:48:32.608Z,21.39
2023-01-21T03:51:05.385Z,21.38
2023-01-21T03:53:33.539Z,21.38
2023-01-21T03:56:01.638Z,21.38
2023-01-21T03:58:29.798Z,21.37
2023-01-21T04:00:57.931Z,21.38
2023-01-21T04:03:26.133Z,21.37
2023-01-21T04:05:54.314Z,21.37
2023-01-21T04:08:23.969Z,21.37
2023-01-21T04:10:52.055Z,21.37
2023-01-21T04:13:20.294Z,21.36
2023-01-21T04:15:48.339Z,21.36
2023-01-21T04:18:16.548Z,21.35
2023-01-21T04:20:46.385Z,21.35
2023-01-21T04:23:14.599Z,21.35
2023-01-21T04:25:44.093Z,21.34
2023-01-21T04:28:12.218Z,21.35
2023-01-21T04:30:40.381Z,21.34
2023-01-21T04:33:08.613Z,21.34
2023-01-21T04:35:36.821Z,21.34
2023-01-21T04:38:05.406Z,21.34
2023-01-21T04:40:33.561Z,21.34
2023-01-21T04:43:03.167Z,21.35
2023-01-21T04:45:31.352Z,21.35
2023-01-21T04:47:59.395Z,21.35
2023-01-21T04:50:27.597Z,21.35
2023-01-21T04:52:55.700Z,21.34
2023-01-21T04:55:26.226Z,21.34
2023-01-21T04:57:54.616Z,21.33
2023-01-21T05:00:24.377Z,21.34
2023-01-21T05:02:52.549Z,21.34
2023-01-21T05:05:20.954Z,21.34
2023-01-21T05:07:49.116Z,21.34
2023-01-21T05:10:17.746Z,21.34
2023-01-21T05:12:46.108Z,21.34
2023-01-21T05:15:14.273Z,21.33
2023-01-21T05:17:43.920Z,21.33
2023-01-21T05:20:12.735Z,21.32
2023-01-21T05:22:40.900Z,21.31
2023-01-21T05:25:09.784Z,21.32
2023-01-21T05:27:37.928Z,21.32
2023-01-21T05:30:07.034Z,21.32
2023-01-21T05:32:35.894Z,21.30
2023-01-21T05:35:05.435Z,21.31
2023-01-21T05:37:33.528Z,21.31
2023-01-21T05:40:01.697Z,21.31
2023-01-21T05:42:29.858Z,21.31
2023-01-21T05:44:58.011Z,21.30
2023-01-21T05:47:26.176Z,21.30
2023-01-21T05:49:54.278Z,21.29
2023-01-21T05:52:23.908Z,21.29
2023-01-21T05:55:01.421Z,21.29
2023-01-21T05:57:30.188Z,21.29
2023-01-21T05:59:58.306Z,21.29
2023-01-21T06:02:26.620Z,21.30
2023-01-21T06:04:54.777Z,21.31
2023-01-21T06:07:24.264Z,21.32
2023-01-21T06:09:52.334Z,21.33
2023-01-21T06:12:20.624Z,21.32
2023-01-21T06:14:48.758Z,21.31
2023-01-21T06:17:16.927Z,21.31
2023-01-21T06:19:44.994Z,21.28
2023-01-21T06:22:14.848Z,21.24
2023-01-21T06:24:44.382Z,21.23
2023-01-21T06:27:12.581Z,21.22
2023-01-21T06:29:40.712Z,21.22
2023-01-21T06:32:09.000Z,21.21
2023-01-21T06:34:37.282Z,21.24
2023-01-21T06:37:05.432Z,21.29
2023-01-21T06:39:33.513Z,21.33
2023-01-21T06:42:03.087Z,21.34
2023-01-21T06:44:31.352Z,21.36
2023-01-21T06:47:01.432Z,21.37
2023-01-21T06:49:29.975Z,21.40
2023-01-21T06:51:58.119Z,21.44
2023-01-21T06:54:29.433Z,21.44
2023-01-21T06:56:58.552Z,21.44
2023-01-21T06:59:28.027Z,21.45
2023-01-21T07:01:58.996Z,21.48
2023-01-21T07:04:27.584Z,21.49
2023-01-21T07:06:55.733Z,21.50
2023-01-21T07:09:23.948Z,21.51
2023-01-21T07:11:52.067Z,21.54
2023-01-21T07:14:20.492Z,21.55
2023-01-21T07:16:50.269Z,21.56
2023-01-21T07:19:18.340Z,21.57
2023-01-21T07:21:46.507Z,21.56
2023-01-21T07:24:14.615Z,21.58
2023-01-21T07:26:43.305Z,21.57
2023-01-21T07:29:11.577Z,21.58
2023-01-21T07:31:40.008Z,21.57
2023-01-21T07:34:09.683Z,21.56
2023-01-21T07:36:37.765Z,21.55
2023-01-21T07:39:05.984Z,21.56
2023-01-21T07:41:34.072Z,21.56
2023-01-21T07:44:02.315Z,21.57
2023-01-21T07:46:33.306Z,21.56
2023-01-21T07:49:01.558Z,21.56
2023-01-21T07:51:31.073Z,21.56
2023-01-21T07:53:59.602Z,21.56
2023-01-21T07:56:27.828Z,21.59
2023-01-21T07:58:56.059Z,21.62
2023-01-21T08:01:27.225Z,21.63
2023-01-21T08:03:55.581Z,21.63
2023-01-21T08:06:23.735Z,21.63
2023-01-21T08:08:53.284Z,21.66
2023-01-21T08:11:21.379Z,21.67
2023-01-21T08:13:50.655Z,21.68
2023-01-21T08:16:18.878Z,21.70
2023-01-21T08:18:47.138Z,21.69
2023-01-21T08:21:15.215Z,21.67
2023-01-21T08:23:43.475Z,21.66
2023-01-21T08:26:12.987Z,21.66
2023-01-21T08:28:41.237Z,21.71
2023-01-21T08:31:10.457Z,21.75
2023-01-21T08:33:38.823Z,21.77
2023-01-21T08:36:08.367Z,21.76
2023-01-21T08:38:36.703Z,21.76
2023-01-21T08:41:05.159Z,21.77
2023-01-21T08:43:34.632Z,21.76
2023-01-21T08:46:02.869Z,21.75
2023-01-21T08:48:31.001Z,21.76
2023-01-21T08:51:00.203Z,21.77
2023-01-21T08:53:28.388Z,21.76
2023-01-21T08:55:59.910Z,21.77
2023-01-21T08:58:28.330Z,21.78
2023-01-21T09:00:57.961Z,21.78
2023-01-21T09:03:26.136Z,21.79
2023-01-21T09:05:55.792Z,21.79
2023-01-21T09:08:24.034Z,21.81
2023-01-21T09:11:04.371Z,21.81
2023-01-21T09:13:33.909Z,21.81
2023-01-21T09:16:03.499Z,21.81
2023-01-21T09:18:31.670Z,21.82
2023-01-21T09:21:02.901Z,21.83
2023-01-21T09:23:34.147Z,21.84
2023-01-21T09:26:03.417Z,21.85
2023-01-21T09:28:31.683Z,21.86
2023-01-21T09:31:00.066Z,21.86
2023-01-21T09:33:30.032Z,21.85
2023-01-21T09:35:58.873Z,21.86
2023-01-21T09:38:27.034Z,21.86
2023-01-21T09:40:55.348Z,21.85
2023-01-21T09:43:25.391Z,21.84
2023-01-21T09:45:54.694Z,21.85
2023-01-21T09:48:29.804Z,21.86
2023-01-21T09:50:58.319Z,21.90
2023-01-21T09:53:29.004Z,21.93
2023-01-21T09:55:59.017Z,21.94
2023-01-21T09:58:28.345Z,21.96
2023-01-21T10:00:57.522Z,21.96
2023-01-21T10:03:30.782Z,21.98
2023-01-21T10:06:31.302Z,21.99
2023-01-21T10:09:36.195Z,22.02
2023-01-21T10:12:12.265Z,22.03
2023-01-21T10:14:51.750Z,22.04
2023-01-21T10:17:22.603Z,22.05
2023-01-21T10:19:54.615Z,22.05
2023-01-21T10:22:24.402Z,22.06
2023-01-21T10:24:54.575Z,22.09
2023-01-21T10:27:23.339Z,22.11
2023-01-21T10:29:52.861Z,22.14
2023-01-21T10:32:23.171Z,22.16
2023-01-21T10:34:54.021Z,22.17
2023-01-21T10:37:26.627Z,22.18
2023-01-21T10:39:58.338Z,22.18
2023-01-21T10:42:39.396Z,22.16
2023-01-21T10:45:10.909Z,22.17
2023-01-21T10:47:42.007Z,22.15
2023-01-21T10:50:24.111Z,22.17
2023-01-21T10:52:54.119Z,22.16
2023-01-21T10:55:27.339Z,22.16
2023-01-21T10:57:57.556Z,22.16
2023-01-21T11:00:26.939Z,22.16
2023-01-21T11:02:56.225Z,22.16
2023-01-21T11:05:25.855Z,22.15
2023-01-21T11:07:54.218Z,22.16
2023-01-21T11:10:24.050Z,22.14
2023-01-21T11:12:52.236Z,22.13
2023-01-21T11:15:20.850Z,22.13
2023-01-21T11:17:50.468Z,22.12
2023-01-21T11:20:21.940Z,22.12
2023-01-21T11:22:51.704Z,22.12
2023-01-21T11:25:26.690Z,22.11
2023-01-21T11:27:54.897Z,22.11
2023-01-21T11:30:49.076Z,22.11
2023-01-21T11:33:23.990Z,22.10
2023-01-21T11:35:52.917Z,22.10
2023-01-21T11:38:33.131Z,22.09
2023-01-21T11:41:05.628Z,22.09
2023-01-21T11:43:37.767Z,22.09
2023-01-21T11:46:35.221Z,22.08
2023-01-21T11:49:26.982Z,22.08
2023-01-21T11:52:15.002Z,22.07
2023-01-21T11:54:44.541Z,22.07
2023-01-21T11:57:27.863Z,22.08
2023-01-21T11:59:58.119Z,22.08
2023-01-21T12:02:28.058Z,22.09
2023-01-21T12:04:58.121Z,22.09
2023-01-21T12:07:28.002Z,22.09
2023-01-21T12:10:09.753Z,22.09
2023-01-21T12:12:48.647Z,22.08
2023-01-21T12:15:34.743Z,22.08
2023-01-21T12:18:08.535Z,22.08
2023-01-21T12:20:40.162Z,22.08
2023-01-21T12:23:27.106Z,22.09
2023-01-21T12:25:59.505Z,22.08
2023-01-21T12:28:34.973Z,22.08
2023-01-21T12:31:09.787Z,22.10
2023-01-21T12:33:46.074Z,22.10
2023-01-21T12:36:16.762Z,22.09
2023-01-21T12:38:47.358Z,22.09
2023-01-21T12:41:18.326Z,22.10
2023-01-21T12:43:48.090Z,22.11
2023-01-21T12:46:18.067Z,22.10
2023-01-21T12:48:47.644Z,22.07
2023-01-21T12:51:18.040Z,22.04
2023-01-21T12:53:48.032Z,22.02
2023-01-21T12:56:22.193Z,22.02
2023-01-21T12:58:52.619Z,22.04
2023-01-21T13:01:36.201Z,22.05
2023-01-21T13:04:06.360Z,22.05
2023-01-21T13:06:52.423Z,22.06
2023-01-21T13:09:23.759Z,22.06
2023-01-21T13:11:54.339Z,22.07
2023-01-21T13:14:26.537Z,22.08
2023-01-21T13:16:57.343Z,22.07
2023-01-21T13:19:25.520Z,22.08
2023-01-21T13:21:57.383Z,22.09
2023-01-21T13:24:28.632Z,22.11
2023-01-21T13:27:04.344Z,22.12
2023-01-21T13:29:37.435Z,22.13
2023-01-21T13:32:25.035Z,22.12
2023-01-21T13:34:56.425Z,22.12
2023-01-21T13:37:27.589Z,22.12
2023-01-21T13:40:15.851Z,22.12
2023-01-21T13:42:47.722Z,22.10
2023-01-21T13:45:21.902Z,22.10
2023-01-21T13:48:18.135Z,22.11
2023-01-21T13:50:54.991Z,22.09
2023-01-21T13:53:32.264Z,22.08
2023-01-21T13:56:07.364Z,22.08
2023-01-21T13:58:39.196Z,22.07
2023-01-21T14:01:10.045Z,22.08
2023-01-21T14:03:40.731Z,22.08
2023-01-21T14:06:10.084Z,22.08
2023-01-21T14:08:45.115Z,22.07
2023-01-21T14:11:16.888Z,22.08
2023-01-21T14:14:16.288Z,22.08
2023-01-21T14:17:06.184Z,22.08
2023-01-21T14:19:48.972Z,22.07
2023-01-21T14:22:28.938Z,22.06
2023-01-21T14:25:05.056Z,22.06
2023-01-21T14:27:38.658Z,22.06
2023-01-21T14:30:13.007Z,22.05
2023-01-21T14:32:42.616Z,22.05
2023-01-21T14:35:16.250Z,22.05
2023-01-21T14:37:48.276Z,22.06
2023-01-21T14:40:18.791Z,22.05
2023-01-21T14:42:59.401Z,22.05
2023-01-21T14:45:54.366Z,22.06
2023-01-21T14:48:29.435Z,22.06
2023-01-21T14:51:10.706Z,22.05
2023-01-21T14:53:51.593Z,22.07
2023-01-21T14:56:24.257Z,22.09
2023-01-21T14:58:53.840Z,22.08
2023-01-21T15:01:41.662Z,22.07
2023-01-21T15:04:21.904Z,22.06
2023-01-21T15:06:50.309Z,22.05
2023-01-21T15:09:21.551Z,22.07
2023-01-21T15:11:57.782Z,22.08
2023-01-21T15:14:26.812Z,22.10
2023-01-21T15:16:56.339Z,22.09
2023-01-21T15:19:29.076Z,22.10
2023-01-21T15:22:21.411Z,22.12
2023-01-21T15:25:21.187Z,22.10
2023-01-21T15:28:40.370Z,22.11
2023-01-21T15:31:09.959Z,22.10
2023-01-21T15:33:42.586Z,22.08
2023-01-21T15:36:19.367Z,22.09
2023-01-21T15:38:47.498Z,22.08
2023-01-21T15:41:25.783Z,22.09
2023-01-21T15:43:59.704Z,22.08
2023-01-21T15:46:31.343Z,22.09
2023-01-21T15:49:05.592Z,22.09
2023-01-21T15:51:43.528Z,22.09
2023-01-21T15:54:24.244Z,22.09
2023-01-21T15:57:00.207Z,22.09
2023-01-21T15:59:46.151Z,22.09
2023-01-21T16:02:16.932Z,22.08
2023-01-21T16:04:59.768Z,22.08
2023-01-21T16:07:32.208Z,22.08
2023-01-21T16:10:05.459Z,22.09
2023-01-21T16:12:37.804Z,22.08
2023-01-21T16:15:10.281Z,22.08
2023-01-21T16:17:46.400Z,22.08
2023-01-21T16:20:17.443Z,22.08
2023-01-21T16:22:46.407Z,22.08
2023-01-21T16:25:16.033Z,22.08
2023-01-21T16:27:49.000Z,22.07
2023-01-21T16:30:18.626Z,22.08
2023-01-21T16:32:47.114Z,22.07
2023-01-21T16:35:17.125Z,22.09
2023-01-21T16:37:46.493Z,22.09
2023-01-21T16:40:22.558Z,22.08
2023-01-21T16:42:52.005Z,22.08
2023-01-21T16:45:21.117Z,22.08
2023-01-21T16:47:56.921Z,22.09
2023-01-21T16:50:27.768Z,22.08
2023-01-21T16:52:56.036Z,22.09
2023-01-21T16:55:25.829Z,22.09
2023-01-21T16:57:55.293Z,22.08
2023-01-21T17:00:24.492Z,22.08
2023-01-21T17:02:52.837Z,22.08
2023-01-21T17:05:21.056Z,22.08
2023-01-21T17:07:51.954Z,22.08
2023-01-21T17:10:20.655Z,22.09
2023-01-21T17:12:48.980Z,22.09
2023-01-21T17:15:19.703Z,22.08
2023-01-21T17:17:47.931Z,22.09
2023-01-21T17:20:35.117Z,22.08
2023-01-21T17:23:05.340Z,22.08
2023-01-21T17:25:36.205Z,22.09
2023-01-21T17:28:17.271Z,22.08
2023-01-21T17:30:45.727Z,22.08
2023-01-21T17:33:28.699Z,22.09
2023-01-21T17:36:07.220Z,22.08
2023-01-21T17:38:40.937Z,22.08
2023-01-21T17:41:11.623Z,22.09
2023-01-21T17:43:42.172Z,22.09
2023-01-21T17:46:10.498Z,22.09
2023-01-21T17:48:39.946Z,22.09
2023-01-21T17:51:09.596Z,22.09
2023-01-21T17:53:43.678Z,22.09
2023-01-21T17:56:14.357Z,22.08
2023-01-21T17:58:48.466Z,22.08
2023-01-21T18:01:16.808Z,22.08
2023-01-21T18:03:45.014Z,22.09
2023-01-21T18:06:20.951Z,22.09
2023-01-21T18:08:50.523Z,22.08
2023-01-21T18:11:20.198Z,22.09
2023-01-21T18:13:48.329Z,22.08
2023-01-21T18:16:16.494Z,22.08
2023-01-21T18:18:44.959Z,22.07
2023-01-21T18:21:20.255Z,22.06
2023-01-21T18:23:48.756Z,22.07
2023-01-21T18:26:23.980Z,22.09
2023-01-21T18:28:52.125Z,22.08
2023-01-21T18:31:20.351Z,22.07
2023-01-21T18:33:48.524Z,22.08
2023-01-21T18:36:16.612Z,22.07
2023-01-21T18:38:45.177Z,22.08
2023-01-21T18:41:13.523Z,22.08
2023-01-21T18:43:43.103Z,22.07
2023-01-21T18:46:13.234Z,22.07
2023-01-21T18:48:43.050Z,22.06
2023-01-21T18:51:11.390Z,22.07
2023-01-21T18:53:39.515Z,22.07
2023-01-21T18:56:11.316Z,22.07
2023-01-21T18:58:39.452Z,22.07
2023-01-21T19:01:21.919Z,22.06
2023-01-21T19:03:53.567Z,22.07
2023-01-21T19:06:21.747Z,22.06
2023-01-21T19:08:49.863Z,22.07
2023-01-21T19:11:18.137Z,22.06
2023-01-21T19:13:46.228Z,22.06
2023-01-21T19:16:17.123Z,22.06
2023-01-21T19:18:45.362Z,22.06
2023-01-21T19:21:13.419Z,22.07
2023-01-21T19:23:41.582Z,22.05
2023-01-21T19:26:11.006Z,22.06
2023-01-21T19:28:39.203Z,22.05
2023-01-21T19:31:07.447Z,22.05
2023-01-21T19:33:37.109Z,22.05
2023-01-21T19:36:10.995Z,22.05
2023-01-21T19:38:39.088Z,22.05
2023-01-21T19:41:07.131Z,22.03
2023-01-21T19:43:37.367Z,22.04
2023-01-21T19:46:08.576Z,22.04
2023-01-21T19:48:38.209Z,22.05
2023-01-21T19:51:06.966Z,22.03
2023-01-21T19:53:35.058Z,22.03
2023-01-21T19:56:03.231Z,22.03
2023-01-21T19:58:31.660Z,22.02
2023-01-21T20:00:59.925Z,22.04
2023-01-21T20:03:30.394Z,22.05
2023-01-21T20:06:01.467Z,22.05
2023-01-21T20:08:30.132Z,22.05
2023-01-21T20:10:58.223Z,22.04
2023-01-21T20:13:27.640Z,22.03
2023-01-21T20:15:55.756Z,22.04
2023-01-21T20:18:25.618Z,22.04
2023-01-21T20:20:54.118Z,22.04
2023-01-21T20:23:25.235Z,22.03
2023-01-21T20:25:54.719Z,22.05
2023-01-21T20:28:24.687Z,22.05
2023-01-21T20:30:53.636Z,22.04
2023-01-21T20:33:22.424Z,22.04
2023-01-21T20:35:51.005Z,22.05
2023-01-21T20:38:21.072Z,22.04
2023-01-21T20:40:50.845Z,22.04
2023-01-21T20:43:20.419Z,22.04
2023-01-21T20:45:48.959Z,22.04
2023-01-21T20:48:19.989Z,22.04
2023-01-21T20:50:48.276Z,22.05
2023-01-21T20:53:16.376Z,22.02
2023-01-21T20:55:45.739Z,22.02
2023-01-21T20:58:15.250Z,22.02
2023-01-21T21:00:44.355Z,22.02
2023-01-21T21:03:13.125Z,22.03
2023-01-21T21:05:41.295Z,22.05
2023-01-21T21:08:12.194Z,22.05
2023-01-21T21:10:40.375Z,22.06
2023-01-21T21:13:08.499Z,22.07
2023-01-21T21:15:38.139Z,22.08
2023-01-21T21:18:06.509Z,22.08
2023-01-21T21:20:35.504Z,22.08
2023-01-21T21:23:04.292Z,22.07
2023-01-21T21:25:33.352Z,22.09
2023-01-21T21:28:01.578Z,22.08
2023-01-21T21:30:30.743Z,22.08
2023-01-21T21:33:01.371Z,22.08
2023-01-21T21:35:30.256Z,22.08
2023-01-21T21:37:59.522Z,22.07
2023-01-21T21:40:29.341Z,22.08
2023-01-21T21:43:15.038Z,22.07
2023-01-21T21:46:03.482Z,22.07
2023-01-21T21:48:37.976Z,22.08
2023-01-21T21:51:06.850Z,22.07
2023-01-21T21:53:35.060Z,22.06
2023-01-21T21:56:04.454Z,22.06
2023-01-21T21:58:32.706Z,22.07
2023-01-21T22:01:08.676Z,22.06
2023-01-21T22:03:38.273Z,22.06
2023-01-21T22:06:07.005Z,22.06
2023-01-21T22:08:35.803Z,22.05
2023-01-21T22:11:04.930Z,22.04
2023-01-21T22:13:34.305Z,22.05
2023-01-21T22:16:02.674Z,22.05
2023-01-21T22:18:31.034Z,22.04
2023-01-21T22:21:03.609Z,22.02
2023-01-21T22:23:35.600Z,22.01
2023-01-21T22:26:04.090Z,21.99
2023-01-21T22:28:32.299Z,21.98
2023-01-21T22:31:03.789Z,21.99
2023-01-21T22:33:32.210Z,21.98
2023-01-21T22:36:04.534Z,21.96
2023-01-21T22:38:33.392Z,21.95
2023-01-21T22:41:01.530Z,21.95
2023-01-21T22:43:29.835Z,21.93
2023-01-21T22:45:58.345Z,21.91
2023-01-21T22:48:26.579Z,21.92
2023-01-21T22:50:55.026Z,21.90
2023-01-21T22:53:24.811Z,21.88
2023-01-21T22:55:56.214Z,21.88
2023-01-21T22:58:24.436Z,21.87
2023-01-21T23:00:52.542Z,21.86
2023-01-21T23:03:20.822Z,21.84
2023-01-21T23:05:49.021Z,21.84
2023-01-21T23:08:17.313Z,21.83
2023-01-21T23:10:46.934Z,21.82
2023-01-21T23:13:15.213Z,21.81
2023-01-21T23:15:43.702Z,21.79
2023-01-21T23:18:11.906Z,21.79
2023-01-21T23:20:41.128Z,21.79
2023-01-21T23:23:09.277Z,21.77
2023-01-21T23:25:40.839Z,21.78
2023-01-21T23:28:10.352Z,21.78
2023-01-21T23:30:38.501Z,21.77
2023-01-21T23:33:06.739Z,21.77
2023-01-21T23:35:34.981Z,21.77
2023-01-21T23:38:03.394Z,21.76
2023-01-21T23:40:31.530Z,21.76
2023-01-21T23:42:59.648Z,21.74
2023-01-21T23:45:29.175Z,21.75
2023-01-21T23:47:57.214Z,21.74
2023-01-21T23:50:26.039Z,21.73
2023-01-21T23:52:54.060Z,21.73
2023-01-21T23:55:22.213Z,21.73
2023-01-21T23:57:50.256Z,21.73
